createdAt,value
2023-04-22T00:00:03.407Z,69.3
2023-04-22T00:03:04.284Z,69.3
2023-04-22T00:06:03.686Z,71
2023-04-22T00:09:03.247Z,71
2023-04-22T00:12:03.265Z,71
2023-04-22T00:15:03.266Z,71
2023-04-22T00:18:03.430Z,71
2023-04-22T00:21:03.259Z,71
2023-04-22T00:24:03.265Z,71
2023-04-22T00:27:03.253Z,71.6
2023-04-22T00:30:03.320Z,71.6
2023-04-22T00:33:03.463Z,71.6
2023-04-22T00:36:03.267Z,71.6
2023-04-22T00:39:03.367Z,71.6
2023-04-22T00:42:03.301Z,71.6
2023-04-22T00:45:03.278Z,72
2023-04-22T00:48:03.332Z,72
2023-04-22T00:51:03.273Z,72
2023-04-22T00:54:03.352Z,72
2023-04-22T00:57:03.315Z,72
2023-04-22T01:00:03.216Z,72
2023-04-22T01:03:04.108Z,72
2023-04-22T01:06:03.287Z,72
2023-04-22T01:09:03.280Z,72
2023-04-22T01:12:03.240Z,72
2023-04-22T01:15:07.291Z,72
2023-04-22T01:18:03.524Z,72
2023-04-22T01:21:03.206Z,72
2023-04-22T01:24:03.300Z,72
2023-04-22T01:27:03.275Z,72
2023-04-22T01:30:03.382Z,72
2023-04-22T01:33:03.445Z,72
2023-04-22T01:36:03.244Z,72
2023-04-22T01:39:03.280Z,72
2023-04-22T01:42:03.316Z,72
2023-04-22T01:45:03.298Z,72
2023-04-22T01:48:03.450Z,72
2023-04-22T01:51:03.265Z,72
2023-04-22T01:54:03.283Z,72
2023-04-22T01:57:03.315Z,72
2023-04-22T02:00:03.399Z,72
2023-04-22T02:03:03.652Z,72
2023-04-22T02:06:03.301Z,73.7
2023-04-22T02:09:03.496Z,73.7
2023-04-22T02:12:03.327Z,73.7
2023-04-22T02:15:03.342Z,73.7
2023-04-22T02:18:03.396Z,73.7
2023-04-22T02:21:03.358Z,73.7
2023-04-22T02:24:03.514Z,73.7
2023-04-22T02:27:03.345Z,73.7
2023-04-22T02:30:03.309Z,73.7
2023-04-22T02:33:03.496Z,73.7
2023-04-22T02:36:03.312Z,73.7
2023-04-22T02:39:03.237Z,73.7
2023-04-22T02:42:03.312Z,74.7
2023-04-22T02:45:03.300Z,74.7
2023-04-22T02:48:03.379Z,74.7
2023-04-22T02:51:03.255Z,74.7
2023-04-22T02:54:03.325Z,74.7
2023-04-22T02:57:03.221Z,74.7
2023-04-22T03:00:03.282Z,74.7
2023-04-22T03:03:03.693Z,74.7
2023-04-22T03:06:03.367Z,74.7
2023-04-22T03:09:03.261Z,74.7
2023-04-22T03:12:03.249Z,74.7
2023-04-22T03:15:03.265Z,74.7
2023-04-22T03:18:03.512Z,74.7
2023-04-22T03:21:03.378Z,74.7
2023-04-22T03:24:03.302Z,74.7
2023-04-22T03:27:03.255Z,74.7
2023-04-22T03:30:03.397Z,74.7
2023-04-22T03:33:03.402Z,74.7
2023-04-22T03:36:03.228Z,74.7
2023-04-22T03:39:03.252Z,74.7
2023-04-22T03:42:03.329Z,74.7
2023-04-22T03:45:03.232Z,75.8
2023-04-22T03:48:03.468Z,75.8
2023-04-22T03:51:03.201Z,75.8
2023-04-22T03:54:03.287Z,75.8
2023-04-22T03:57:03.249Z,75.8
2023-04-22T04:00:03.249Z,75.8
2023-04-22T04:03:03.653Z,75.8
2023-04-22T04:06:03.600Z,75.8
2023-04-22T04:09:03.243Z,75.8
2023-04-22T04:12:03.218Z,77.5
2023-04-22T04:15:03.249Z,77.5
2023-04-22T04:18:03.385Z,77.5
2023-04-22T04:21:03.254Z,77.5
2023-04-22T04:24:03.263Z,77.5
2023-04-22T04:27:03.216Z,77.5
2023-04-22T04:30:03.367Z,77.5
2023-04-22T04:33:03.396Z,77.5
2023-04-22T04:36:03.291Z,77.5
2023-04-22T04:39:03.239Z,77.5
2023-04-22T04:42:03.369Z,77.5
2023-04-22T04:45:03.280Z,77.5
2023-04-22T04:48:03.350Z,77.5
2023-04-22T04:51:03.253Z,77.5
2023-04-22T04:54:03.353Z,77.5
2023-04-22T04:57:03.264Z,77.5
2023-04-22T05:00:03.328Z,77.5
2023-04-22T05:03:03.661Z,77.5
2023-04-22T05:06:03.252Z,77.5
2023-04-22T05:09:03.305Z,77.5
2023-04-22T05:12:03.363Z,77.5
2023-04-22T05:15:03.295Z,77.5
2023-04-22T05:18:03.568Z,77.5
2023-04-22T05:21:03.299Z,77.5
2023-04-22T05:24:03.264Z,77.5
2023-04-22T05:27:03.499Z,77.5
2023-04-22T05:30:03.609Z,77.5
2023-04-22T05:33:03.583Z,77.5
2023-04-22T05:36:03.265Z,77.5
2023-04-22T05:39:03.279Z,77.5
2023-04-22T05:42:03.321Z,77.5
2023-04-22T05:45:03.303Z,79.4
2023-04-22T05:48:03.451Z,79.4
2023-04-22T05:51:03.251Z,79.4
2023-04-22T05:54:03.254Z,79.4
2023-04-22T05:57:03.212Z,79.4
2023-04-22T06:00:03.558Z,79.4
2023-04-22T06:03:03.819Z,79.4
2023-04-22T06:06:03.492Z,79.4
2023-04-22T06:09:03.275Z,79.4
2023-04-22T06:12:03.297Z,79.4
2023-04-22T06:15:03.359Z,79.4
2023-04-22T06:18:03.423Z,79.4
2023-04-22T06:21:03.278Z,79.1
2023-04-22T06:24:03.326Z,79.1
2023-04-22T06:27:03.269Z,79.1
2023-04-22T06:30:03.317Z,79.1
2023-04-22T06:33:03.405Z,77.8
2023-04-22T06:36:03.287Z,77.8
2023-04-22T06:39:03.272Z,77.8
2023-04-22T06:42:03.325Z,77.2
2023-04-22T06:45:03.212Z,77.2
2023-04-22T06:48:03.437Z,77.2
2023-04-22T06:51:03.245Z,77.2
2023-04-22T06:54:03.388Z,77
2023-04-22T06:57:03.224Z,77
2023-04-22T07:00:03.712Z,77
2023-04-22T07:03:03.481Z,74.9
2023-04-22T07:06:03.483Z,74.9
2023-04-22T07:09:03.214Z,74.9
2023-04-22T07:12:03.291Z,73.7
2023-04-22T07:15:03.254Z,73.7
2023-04-22T07:18:03.447Z,73.7
2023-04-22T07:21:03.285Z,73.7
2023-04-22T07:24:03.268Z,72.9
2023-04-22T07:27:03.215Z,72.9
2023-04-22T07:30:03.430Z,72.9
2023-04-22T07:33:03.584Z,71.7
2023-04-22T07:36:03.288Z,71.7
2023-04-22T07:39:04.170Z,71.7
2023-04-22T07:42:03.285Z,71.7
2023-04-22T07:45:03.336Z,70.7
2023-04-22T07:48:03.418Z,70.7
2023-04-22T07:51:03.252Z,70.7
2023-04-22T07:54:03.289Z,70.7
2023-04-22T07:57:03.201Z,70.7
2023-04-22T08:00:03.340Z,70
2023-04-22T08:03:03.649Z,70
2023-04-22T08:06:03.237Z,70
2023-04-22T08:09:03.370Z,70
2023-04-22T08:12:03.294Z,69.5
2023-04-22T08:15:03.342Z,69.5
2023-04-22T08:18:03.420Z,69.5
2023-04-22T08:21:03.252Z,69.5
2023-04-22T08:24:03.287Z,69.5
2023-04-22T08:27:03.240Z,68.4
2023-04-22T08:30:03.435Z,68.4
2023-04-22T08:33:03.397Z,68.4
2023-04-22T08:36:03.300Z,68.4
2023-04-22T08:39:03.387Z,68.8
2023-04-22T08:42:03.259Z,68.8
2023-04-22T08:45:03.431Z,68.8
2023-04-22T08:48:03.460Z,68.8
2023-04-22T08:51:03.238Z,67.8
2023-04-22T08:54:03.367Z,67.8
2023-04-22T08:57:03.300Z,67.8
2023-04-22T09:00:03.461Z,67.8
2023-04-22T09:03:03.467Z,67.8
2023-04-22T09:06:03.246Z,66.3
2023-04-22T09:09:03.302Z,66.3
2023-04-22T09:12:03.288Z,66.3
2023-04-22T09:15:03.392Z,66.3
2023-04-22T09:18:03.382Z,66.3
2023-04-22T09:21:03.247Z,66.1
2023-04-22T09:24:03.388Z,66.1
2023-04-22T09:27:03.276Z,66.1
2023-04-22T09:30:03.281Z,66.1
2023-04-22T09:33:03.467Z,66.1
2023-04-22T09:36:03.314Z,66.1
2023-04-22T09:39:03.354Z,65.6
2023-04-22T09:42:03.255Z,65.6
2023-04-22T09:45:04.670Z,65.6
2023-04-22T09:48:03.385Z,65.6
2023-04-22T09:51:03.307Z,65.6
2023-04-22T09:54:03.262Z,64.8
2023-04-22T09:57:03.285Z,64.8
2023-04-22T10:00:03.244Z,64.8
2023-04-22T10:03:03.554Z,64.8
2023-04-22T10:06:03.172Z,64.8
2023-04-22T10:09:03.257Z,64.5
2023-04-22T10:12:03.274Z,64.5
2023-04-22T10:15:03.218Z,64.5
2023-04-22T10:18:03.263Z,64.5
2023-04-22T10:21:03.211Z,64.5
2023-04-22T10:24:03.253Z,64.5
2023-04-22T10:27:03.278Z,64
2023-04-22T10:30:03.244Z,64
2023-04-22T10:33:03.377Z,64
2023-04-22T10:36:03.210Z,64
2023-04-22T10:39:03.235Z,64
2023-04-22T10:42:03.292Z,64
2023-04-22T10:45:03.276Z,64
2023-04-22T10:48:03.582Z,63
2023-04-22T10:51:03.370Z,63
2023-04-22T10:54:03.231Z,63
2023-04-22T10:57:03.339Z,63
2023-04-22T11:00:03.391Z,63
2023-04-22T11:03:03.624Z,63
2023-04-22T11:06:03.448Z,61
2023-04-22T11:09:03.286Z,61
2023-04-22T11:12:03.297Z,61
2023-04-22T11:15:03.209Z,61
2023-04-22T11:18:03.412Z,61
2023-04-22T11:21:03.272Z,54.9
2023-04-22T11:24:03.373Z,54.9
2023-04-22T11:27:03.269Z,54.9
2023-04-22T11:30:03.366Z,54.9
2023-04-22T11:33:03.387Z,54.9
2023-04-22T11:36:03.291Z,52.1
2023-04-22T11:39:03.278Z,52.1
2023-04-22T11:42:03.246Z,52.1
2023-04-22T11:45:03.294Z,52.1
2023-04-22T11:48:03.454Z,52.1
2023-04-22T11:51:03.291Z,52.1
2023-04-22T11:54:03.284Z,52.1
2023-04-22T11:57:03.306Z,52.1
2023-04-22T12:00:03.577Z,52.1
2023-04-22T12:03:04.055Z,48
2023-04-22T12:06:03.469Z,48
2023-04-22T12:09:03.268Z,48
2023-04-22T12:12:03.282Z,48
2023-04-22T12:15:03.358Z,48
2023-04-22T12:18:03.587Z,48
2023-04-22T12:21:03.302Z,48
2023-04-22T12:24:03.241Z,48
2023-04-22T12:27:03.306Z,48
2023-04-22T12:30:03.378Z,48
2023-04-22T12:33:03.285Z,48
2023-04-22T12:36:03.389Z,48
2023-04-22T12:39:03.280Z,49
2023-04-22T12:42:03.317Z,49
2023-04-22T12:45:03.380Z,49
2023-04-22T12:48:03.269Z,49
2023-04-22T12:51:03.310Z,49
2023-04-22T12:54:03.371Z,49
2023-04-22T12:57:03.226Z,49
2023-04-22T13:00:03.299Z,49
2023-04-22T13:03:03.799Z,49
2023-04-22T13:06:03.328Z,49
2023-04-22T13:09:03.390Z,49
2023-04-22T13:12:03.304Z,49
2023-04-22T13:15:03.305Z,45.9
2023-04-22T13:18:03.536Z,45.9
2023-04-22T13:21:03.347Z,45.9
2023-04-22T13:24:03.381Z,45.9
2023-04-22T13:27:03.245Z,45.9
2023-04-22T13:30:03.314Z,45.9
2023-04-22T13:33:03.499Z,45.9
2023-04-22T13:36:03.302Z,45.9
2023-04-22T13:39:03.302Z,45.9
2023-04-22T13:42:03.358Z,45.9
2023-04-22T13:45:03.291Z,45.9
2023-04-22T13:48:03.583Z,45.9
2023-04-22T13:51:03.264Z,49.3
2023-04-22T13:54:03.272Z,49.3
2023-04-22T13:57:03.337Z,49.3
2023-04-22T14:00:03.446Z,49.3
2023-04-22T14:03:03.748Z,49.3
2023-04-22T14:06:03.289Z,49.3
2023-04-22T14:09:03.278Z,49.3
2023-04-22T14:12:03.244Z,49.3
2023-04-22T14:15:03.394Z,49.3
2023-04-22T14:18:03.301Z,49.3
2023-04-22T14:21:03.230Z,50
2023-04-22T14:27:03.266Z,50
2023-04-22T14:30:03.534Z,50
2023-04-22T14:33:03.497Z,50
2023-04-22T14:36:03.222Z,50
2023-04-22T14:39:03.246Z,50
2023-04-22T14:42:03.297Z,50
2023-04-22T14:45:03.255Z,50
2023-04-22T14:48:03.506Z,50
2023-04-22T14:51:03.181Z,51.9
2023-04-22T14:54:03.313Z,51.9
2023-04-22T14:57:03.155Z,51.9
2023-04-22T15:00:03.345Z,51.9
2023-04-22T15:03:03.576Z,51.9
2023-04-22T15:06:03.229Z,51.9
2023-04-22T15:09:03.253Z,51.9
2023-04-22T15:12:03.253Z,51.9
2023-04-22T15:15:03.184Z,51.9
2023-04-22T15:18:03.335Z,53.4
2023-04-22T15:21:03.173Z,53.4
2023-04-22T15:24:03.289Z,53.4
2023-04-22T15:27:03.519Z,53.4
2023-04-22T15:30:03.305Z,53.4
2023-04-22T15:33:03.464Z,53.4
2023-04-22T15:36:03.310Z,53.4
2023-04-22T15:39:03.322Z,53.4
2023-04-22T15:42:03.264Z,53.4
2023-04-22T15:45:06.207Z,53.4
2023-04-22T15:48:03.334Z,53.4
2023-04-22T15:51:03.249Z,53.4
2023-04-22T15:54:03.262Z,53.4
2023-04-22T15:57:03.280Z,52
2023-04-22T16:00:15.538Z,52
2023-04-22T16:03:03.687Z,52
2023-04-22T16:06:03.180Z,52
2023-04-22T16:09:03.196Z,52
2023-04-22T16:12:03.304Z,52
2023-04-22T16:15:03.283Z,52
2023-04-22T16:18:03.329Z,52
2023-04-22T16:21:03.282Z,52
2023-04-22T16:24:03.274Z,52
2023-04-22T16:27:03.309Z,52
2023-04-22T16:30:03.408Z,52
2023-04-22T16:33:03.355Z,52
2023-04-22T16:36:03.265Z,52
2023-04-22T16:39:03.200Z,52
2023-04-22T16:42:03.259Z,52
2023-04-22T16:45:03.279Z,52
2023-04-22T16:48:03.451Z,52
2023-04-22T16:51:03.254Z,53.8
2023-04-22T16:54:03.262Z,53.8
2023-04-22T16:57:03.370Z,53.8
2023-04-22T17:00:03.384Z,53.8
2023-04-22T17:03:03.747Z,53.8
2023-04-22T17:06:03.277Z,53.8
2023-04-22T17:09:03.250Z,53.8
2023-04-22T17:12:03.310Z,53.8
2023-04-22T17:15:03.349Z,53.8
2023-04-22T17:18:03.305Z,53.8
2023-04-22T17:21:03.391Z,53.8
2023-04-22T17:24:03.332Z,53.8
2023-04-22T17:27:03.271Z,56.7
2023-04-22T17:30:03.277Z,56.7
2023-04-22T17:33:03.406Z,56.7
2023-04-22T17:36:03.324Z,56.7
2023-04-22T17:39:03.223Z,56.7
2023-04-22T17:42:03.257Z,56.7
2023-04-22T17:45:03.257Z,56.7
2023-04-22T17:48:03.372Z,56.7
2023-04-22T17:51:03.227Z,56.7
2023-04-22T17:54:03.300Z,58.1
2023-04-22T17:57:03.351Z,58.1
2023-04-22T18:00:03.278Z,58.1
2023-04-22T18:03:04.132Z,58.1
2023-04-22T18:06:03.353Z,58.1
2023-04-22T18:09:03.234Z,58.1
2023-04-22T18:12:03.333Z,58.1
2023-04-22T18:15:03.258Z,59.5
2023-04-22T18:18:03.315Z,59.5
2023-04-22T18:21:03.194Z,59.5
2023-04-22T18:24:03.258Z,59.5
2023-04-22T18:27:03.264Z,59.5
2023-04-22T18:30:03.266Z,59.5
2023-04-22T18:33:03.394Z,59.5
2023-04-22T18:36:03.307Z,59.5
2023-04-22T18:39:03.250Z,59.4
2023-04-22T18:42:03.235Z,59.4
2023-04-22T18:45:09.492Z,59.4
2023-04-22T18:48:03.408Z,59.4
2023-04-22T18:51:03.219Z,59.4
2023-04-22T18:54:03.372Z,59.4
2023-04-22T18:57:03.181Z,59.4
2023-04-22T19:00:03.185Z,60
2023-04-22T19:03:03.715Z,60.5
2023-04-22T19:06:03.148Z,60.5
2023-04-22T19:09:03.154Z,60.5
2023-04-22T19:12:03.207Z,60.5
2023-04-22T19:15:03.240Z,60.5
2023-04-22T19:18:03.392Z,61.4
2023-04-22T19:21:03.390Z,61.4
2023-04-22T19:24:03.279Z,61.4
2023-04-22T19:27:03.222Z,61.4
2023-04-22T19:30:03.284Z,61.4
2023-04-22T19:33:03.524Z,61.4
2023-04-22T19:36:03.354Z,61.4
2023-04-22T19:39:03.259Z,61.4
2023-04-22T19:42:03.192Z,61.4
2023-04-22T19:45:03.180Z,61.4
2023-04-22T19:48:03.332Z,61.4
2023-04-22T19:51:03.161Z,61.4
2023-04-22T19:54:03.268Z,61.4
2023-04-22T19:57:03.183Z,61.4
2023-04-22T20:00:03.263Z,61.4
2023-04-22T20:03:03.646Z,61.4
2023-04-22T20:06:03.196Z,61.4
2023-04-22T20:09:03.179Z,61.4
2023-04-22T20:12:03.249Z,61.4
2023-04-22T20:15:03.152Z,61.4
2023-04-22T20:18:03.448Z,58.3
2023-04-22T20:21:03.253Z,58.3
2023-04-22T20:24:03.196Z,58.3
2023-04-22T20:27:03.411Z,58.3
2023-04-22T20:30:03.219Z,58.3
2023-04-22T20:33:03.431Z,58.3
2023-04-22T20:36:03.176Z,58.3
2023-04-22T20:39:03.170Z,58.3
2023-04-22T20:42:03.206Z,58.3
2023-04-22T20:45:03.329Z,58.3
2023-04-22T20:48:03.451Z,58.3
2023-04-22T20:51:03.225Z,58.3
2023-04-22T20:54:03.235Z,58.3
2023-04-22T20:57:03.226Z,58.3
2023-04-22T21:00:03.181Z,58.3
2023-04-22T21:03:03.704Z,58.3
2023-04-22T21:06:03.272Z,58.3
2023-04-22T21:09:03.231Z,58.3
2023-04-22T21:12:03.198Z,63.2
2023-04-22T21:15:03.402Z,63.2
2023-04-22T21:18:03.300Z,63.2
2023-04-22T21:21:03.256Z,63.2
2023-04-22T21:24:03.185Z,63.2
2023-04-22T21:27:03.262Z,63.2
2023-04-22T21:30:03.227Z,63.2
2023-04-22T21:33:03.299Z,63.2
2023-04-22T21:36:03.252Z,63.2
2023-04-22T21:39:03.219Z,63.2
2023-04-22T21:42:03.218Z,63.2
2023-04-22T21:45:03.353Z,62.1
2023-04-22T21:48:03.266Z,62.1
2023-04-22T21:51:03.186Z,62.1
2023-04-22T21:54:03.190Z,62.1
2023-04-22T21:57:03.281Z,62.1
2023-04-22T22:00:04.429Z,62.1
2023-04-22T22:03:03.704Z,62.1
2023-04-22T22:06:03.191Z,62.1
2023-04-22T22:09:03.237Z,62.1
2023-04-22T22:12:03.228Z,62.1
2023-04-22T22:15:03.149Z,62.1
2023-04-22T22:18:03.288Z,62.1
2023-04-22T22:21:03.296Z,62.1
2023-04-22T22:24:03.278Z,62.1
2023-04-22T22:27:03.198Z,62.1
2023-04-22T22:30:03.275Z,62.1
2023-04-22T22:33:03.333Z,62.1
2023-04-22T22:36:03.275Z,62.1
2023-04-22T22:39:03.188Z,62.1
2023-04-22T22:42:03.252Z,62.1
2023-04-22T22:45:03.318Z,62.1
2023-04-22T22:48:03.351Z,62.1
2023-04-22T22:51:03.276Z,62.1
2023-04-22T22:54:03.353Z,62.1
2023-04-22T22:57:03.184Z,63.1
2023-04-22T23:00:03.245Z,63.1
2023-04-22T23:03:03.990Z,63.1
2023-04-22T23:06:03.186Z,63.1
2023-04-22T23:09:03.217Z,63.1
2023-04-22T23:12:03.234Z,63.1
2023-04-22T23:15:03.127Z,63.1
2023-04-22T23:18:03.408Z,63.1
2023-04-22T23:21:03.384Z,63.1
2023-04-22T23:24:03.206Z,63.1
2023-04-22T23:27:03.204Z,63.1
2023-04-22T23:30:03.328Z,63.1
2023-04-22T23:33:03.273Z,63.1
2023-04-22T23:36:03.183Z,63.1
2023-04-22T23:39:03.351Z,63.1
2023-04-22T23:42:03.179Z,63.1
2023-04-22T23:45:03.196Z,63.1
2023-04-22T23:48:03.245Z,63.1
2023-04-22T23:51:03.235Z,63.1
2023-04-22T23:54:03.195Z,63.1
2023-04-22T23:57:03.239Z,65.3
